Time;durP1;ratioP1;P1;durP2;ratioP2;P2;SDS_P1;SDS_P2;PMS_P1;PMS_P2;Temp;Humidity;BMP_temperature;BMP_pressure;BME280_temperature;BME280_humidity;BME280_pressure;Samples;Min_cycle;Max_cycle;Signal;HPM_P1;HPM_P2
2021/04/23 00:01:58;;;;;;;28.15;10.70;;;;;;;3.15;66.08;99419.03;4555138;78;21564;-86
2021/04/23 00:07:59;;;;;;;31.48;12.23;;;;;;;3.23;65.19;99430.20;4554939;78;21146;-87
2021/04/23 00:14:02;;;;;;;37.20;11.60;;;;;;;3.28;66.81;99424.06;4553431;78;21154;-87
2021/04/23 00:20:18;;;;;;;34.35;11.70;;;;;;;3.46;66.31;99424.30;4548665;78;21131;-86
2021/04/23 00:26:20;;;;;;;27.98;11.25;;;;;;;3.54;67.06;99420.03;4548603;78;21153;-87
2021/04/23 00:38:42;;;;;;;21.97;10.58;;;;;;;3.45;67.57;99415.95;4548262;78;21608;-87
2021/04/23 00:44:44;;;;;;;23.38;9.38;;;;;;;3.35;67.72;99416.28;4548135;78;21848;-86
2021/04/23 00:50:53;;;;;;;25.05;9.35;;;;;;;3.22;67.49;99407.75;4548230;78;21126;-86
2021/04/23 00:56:56;;;;;;;25.77;10.10;;;;;;;3.11;67.01;99417.28;4546865;78;21471;-86
2021/04/23 01:02:58;;;;;;;23.40;9.68;;;;;;;3.05;67.83;99409.08;4548208;78;21095;-86
2021/04/23 01:09:05;;;;;;;21.30;8.53;;;;;;;3.09;68.57;99418.14;4548477;78;21134;-86
2021/04/23 01:15:26;;;;;;;31.10;10.72;;;;;;;3.05;68.86;99423.38;4624820;76;22959;-87
2021/04/23 01:21:32;;;;;;;32.17;12.98;;;;;;;2.97;69.09;99430.94;4517449;79;21598;-83
2021/04/23 01:27:34;;;;;;;30.50;11.27;;;;;;;2.98;69.08;99431.72;4518400;79;21137;-84
2021/04/23 01:33:39;;;;;;;32.30;11.97;;;;;;;2.99;68.93;99438.73;4490417;79;21701;-83
2021/04/23 01:39:43;;;;;;;31.87;11.63;;;;;;;3.03;69.23;99435.63;4517743;79;21133;-83
2021/04/23 01:45:45;;;;;;;29.90;10.85;;;;;;;3.11;69.33;99437.56;4518135;79;21161;-83
2021/04/23 01:51:59;;;;;;;31.57;12.40;;;;;;;3.23;69.25;99434.48;4517084;79;21165;-84
2021/04/23 01:58:02;;;;;;;34.40;12.78;;;;;;;3.40;69.54;99436.41;4500493;79;21169;-83
2021/04/23 02:04:08;;;;;;;36.45;12.15;;;;;;;3.53;69.38;99438.72;4517302;79;21114;-83
2021/04/23 02:10:15;;;;;;;32.57;13.10;;;;;;;3.58;69.68;99442.63;4517534;79;21200;-84
2021/04/23 02:16:19;;;;;;;31.85;11.85;;;;;;;3.63;69.55;99439.77;4517321;79;21148;-84
2021/04/23 02:22:20;;;;;;;29.52;12.23;;;;;;;3.69;69.82;99443.91;4516879;79;21563;-83
2021/04/23 02:28:22;;;;;;;29.30;13.08;;;;;;;3.72;69.77;99450.84;4515826;79;21145;-83
2021/04/23 02:34:26;;;;;;;26.37;12.25;;;;;;;3.75;70.10;99450.20;4516767;79;21200;-83
2021/04/23 02:40:29;;;;;;;32.83;13.55;;;;;;;3.70;69.90;99449.00;4516445;79;21157;-83
2021/04/23 02:46:32;;;;;;;27.37;11.28;;;;;;;3.64;70.28;99467.88;4515873;79;21603;-83
2021/04/23 02:52:33;;;;;;;31.87;11.35;;;;;;;3.56;70.42;99465.95;4515805;79;21169;-83
2021/04/23 02:58:35;;;;;;;28.17;11.68;;;;;;;3.43;70.60;99466.89;4516218;79;21133;-83
2021/04/23 03:04:37;;;;;;;30.75;12.10;;;;;;;3.24;70.94;99462.34;4516681;79;21137;-83
2021/04/23 03:10:44;;;;;;;29.48;11.38;;;;;;;3.10;71.30;99469.80;4515798;79;21916;-83
2021/04/23 03:16:45;;;;;;;;;;;;;;;3.02;71.75;99470.56;4518730;79;21146;-83
2021/04/23 03:22:47;;;;;;;18.73;10.18;;;;;;;2.98;72.25;99470.39;4515648;79;20152;-83
2021/04/23 03:28:48;;;;;;;27.27;10.63;;;;;;;3.01;72.36;99471.11;4515708;79;21457;-83
2021/04/23 03:34:50;;;;;;;20.37;9.18;;;;;;;3.02;72.30;99479.45;4515428;79;21149;-83
2021/04/23 03:40:52;;;;;;;22.37;9.10;;;;;;;2.97;72.09;99481.52;4516002;79;21160;-84
2021/04/23 03:46:54;;;;;;;27.60;10.25;;;;;;;2.87;72.40;99489.90;4515817;79;21352;-83
2021/04/23 03:52:58;;;;;;;23.40;8.53;;;;;;;2.77;72.72;99494.25;4516268;79;21134;-84
2021/04/23 03:59:00;;;;;;;26.48;12.03;;;;;;;2.84;73.31;99496.73;4515576;79;21579;-83
2021/04/23 04:05:02;;;;;;;29.48;13.55;;;;;;;2.96;73.60;99502.92;4516370;79;21133;-83
2021/04/23 04:11:05;;;;;;;32.85;13.45;;;;;;;2.91;73.48;99502.48;4515769;79;21133;-84
2021/04/23 04:17:06;;;;;;;35.58;13.55;;;;;;;2.96;73.93;99512.39;4516366;79;21129;-83
2021/04/23 04:23:14;;;;;;;26.52;11.53;;;;;;;3.03;73.74;99508.11;4516618;79;21585;-83
2021/04/23 04:29:15;;;;;;;31.97;14.30;;;;;;;3.07;73.83;99514.48;4516742;79;21164;-83
2021/04/23 04:35:17;;;;;;;32.05;12.15;;;;;;;3.16;74.20;99518.58;4516202;79;21754;-84
2021/04/23 04:41:19;;;;;;;30.92;11.30;;;;;;;3.20;74.37;99526.30;4516862;79;21150;-84
2021/04/23 04:47:21;;;;;;;26.20;10.43;;;;;;;3.29;74.36;99530.39;4516270;79;21149;-83
2021/04/23 04:53:23;;;;;;;23.12;10.23;;;;;;;3.44;74.58;99534.01;4516090;79;21168;-83
2021/04/23 04:59:25;;;;;;;25.90;10.48;;;;;;;3.70;74.27;99535.65;4516866;79;21149;-84
2021/04/23 05:05:28;;;;;;;36.68;15.63;;;;;;;3.94;74.26;99543.32;4516567;79;21601;-84
2021/04/23 05:11:29;;;;;;;27.67;14.23;;;;;;;4.16;73.98;99551.30;4516859;78;21138;-83
2021/04/23 05:17:32;;;;;;;27.45;11.00;;;;;;;4.43;74.19;99557.16;4502541;79;21098;-83
2021/04/23 05:23:33;;;;;;;27.35;11.63;;;;;;;4.78;74.21;99557.35;4461220;80;21160;-84
2021/04/23 05:29:35;;;;;;;16.70;8.38;;;;;;;5.22;73.69;99559.34;4461671;80;21148;-84
2021/04/23 05:35:39;;;;;;;22.77;9.50;;;;;;;5.60;73.36;99560.93;4461417;80;21302;-84
2021/04/23 05:41:41;;;;;;;21.73;9.08;;;;;;;5.78;73.04;99568.42;4461308;80;21141;-85
2021/04/23 05:47:43;;;;;;;22.30;9.93;;;;;;;5.79;72.66;99571.36;4378292;80;21948;-89
2021/04/23 05:53:44;;;;;;;20.27;8.30;;;;;;;5.81;72.89;99579.41;4369130;80;21848;-89
2021/04/23 05:59:46;;;;;;;21.23;10.20;;;;;;;6.34;72.43;99565.92;4297026;82;21173;-88
2021/04/23 06:05:47;;;;;;;18.35;9.40;;;;;;;6.57;72.16;99577.25;4387242;80;21176;-88
2021/04/23 06:11:48;;;;;;;26.87;12.05;;;;;;;6.67;72.16;99580.90;4368946;80;21193;-88
2021/04/23 06:17:53;;;;;;;25.80;10.30;;;;;;;6.56;71.96;99577.59;4386563;81;21118;-88
2021/04/23 06:23:54;;;;;;;25.80;10.05;;;;;;;6.55;72.31;99580.86;4377211;81;21145;-89
2021/04/23 06:29:56;;;;;;;25.88;10.70;;;;;;;6.59;71.94;99578.27;4389717;80;21337;-90
2021/04/23 06:35:58;;;;;;;20.68;10.28;;;;;;;6.67;71.82;99596.45;4392107;81;21137;-89
2021/04/23 06:42:17;;;;;;;23.32;10.43;;;;;;;6.64;71.58;99606.05;4320819;81;21137;-88
2021/04/23 06:48:20;;;;;;;27.17;10.53;;;;;;;6.62;71.39;99598.81;4372738;81;21170;-88
2021/04/23 06:54:22;;;;;;;23.40;11.55;;;;;;;6.62;71.72;99600.17;4391507;80;21162;-87
2021/04/23 07:00:28;;;;;;;24.50;11.48;;;;;;;6.91;71.82;99595.14;4320798;81;21164;-88
2021/04/23 07:06:29;;;;;;;22.90;11.08;;;;;;;7.16;71.70;99602.24;4401021;80;21177;-88
2021/04/23 07:12:31;;;;;;;22.55;10.78;;;;;;;7.34;71.09;99607.73;4376898;81;21212;-88
2021/04/23 07:18:32;;;;;;;25.90;11.35;;;;;;;7.47;70.68;99610.13;4366816;81;21131;-87
2021/04/23 07:24:35;;;;;;;27.27;12.82;;;;;;;7.24;70.33;99614.41;4360210;81;21596;-88
2021/04/23 07:30:39;;;;;;;23.67;13.10;;;;;;;7.33;71.10;99617.83;4348060;81;21143;-87
2021/04/23 07:36:40;;;;;;;28.12;13.38;;;;;;;7.29;70.81;99612.84;4360447;81;21145;-88
2021/04/23 07:42:42;;;;;;;28.42;13.98;;;;;;;7.35;70.83;99614.76;4347466;81;21155;-89
2021/04/23 07:48:44;;;;;;;23.35;13.80;;;;;;;7.48;70.25;99625.91;4339612;81;21167;-87
2021/04/23 07:54:46;;;;;;;29.48;15.18;;;;;;;7.75;70.57;99609.67;4347438;81;21157;-89
2021/04/23 08:00:48;;;;;;;27.02;13.50;;;;;;;8.32;70.13;99605.98;4359430;81;21190;-88
2021/04/23 08:06:49;;;;;;;26.60;12.53;;;;;;;8.68;69.60;99612.13;4349881;81;21550;-88
2021/04/23 08:12:52;;;;;;;27.48;12.95;;;;;;;8.80;68.99;99613.44;4338706;81;21189;-89
2021/04/23 08:18:54;;;;;;;24.05;12.88;;;;;;;8.68;68.60;99624.41;4331140;82;21600;-90
2021/04/23 08:24:55;;;;;;;18.07;11.12;;;;;;;8.72;68.82;99625.88;4316048;82;21182;-88
2021/04/23 08:30:57;;;;;;;18.20;10.90;;;;;;;8.50;68.38;99625.05;4419459;79;21619;-90
2021/04/23 08:36:59;;;;;;;23.80;11.70;;;;;;;8.18;68.92;99621.89;4435519;80;21133;-88
2021/04/23 08:43:00;;;;;;;23.57;11.97;;;;;;;8.07;69.17;99620.77;4458847;78;21627;-87
2021/04/23 08:49:04;;;;;;;19.17;11.97;;;;;;;7.95;68.68;99631.92;4438442;79;21638;-88
2021/04/23 08:55:07;;;;;;;19.87;11.65;;;;;;;7.47;69.34;99628.41;4441452;80;21133;-88
2021/04/23 09:01:08;;;;;;;30.23;15.88;;;;;;;7.53;69.79;99618.30;4447675;79;21574;-89
2021/04/23 09:07:10;;;;;;;24.92;12.90;;;;;;;8.73;69.70;99609.72;4421401;80;21145;-88
2021/04/23 09:13:15;;;;;;;27.70;13.68;;;;;;;8.92;68.33;99613.96;4424222;79;21144;-89
2021/04/23 09:19:27;;;;;;;13.93;7.17;;;;;;;8.74;69.81;99617.56;4439155;80;21125;-88
2021/04/23 09:25:40;;;;;;;11.78;7.22;;;;;;;9.72;67.98;99610.36;4452616;80;21271;-89
2021/04/23 09:31:41;;;;;;;14.55;8.38;;;;;;;11.09;67.20;99600.44;4435304;80;21129;-88
2021/04/23 09:37:48;;;;;;;15.18;6.90;;;;;;;12.30;65.65;99592.44;4439538;80;21137;-89
2021/04/23 09:43:49;;;;;;;10.28;7.28;;;;;;;13.06;63.36;99582.20;4455819;78;21320;-88
2021/04/23 09:49:55;;;;;;;11.97;7.40;;;;;;;13.36;62.54;99584.27;4441359;79;21642;-89
2021/04/23 09:55:57;;;;;;;14.43;7.17;;;;;;;12.50;61.84;99587.02;4453490;80;21320;-87
2021/04/23 10:02:04;;;;;;;11.38;6.78;;;;;;;11.29;61.61;99602.57;4459406;80;21574;-88
2021/04/23 10:08:10;;;;;;;8.40;5.80;;;;;;;10.04;61.80;99581.83;4449462;80;21557;-88
2021/04/23 10:14:13;;;;;;;11.30;6.53;;;;;;;9.58;62.23;99572.56;4436077;80;21212;-87
2021/04/23 10:20:20;;;;;;;13.83;7.60;;;;;;;9.59;62.65;99570.03;4434973;80;21136;-88
2021/04/23 10:26:22;;;;;;;13.67;7.47;;;;;;;9.86;62.02;99570.48;4435703;80;21141;-88
2021/04/23 10:32:24;;;;;;;10.38;5.85;;;;;;;9.65;61.38;99586.97;4331446;81;21570;-89
2021/04/23 10:38:29;;;;;;;11.40;6.00;;;;;;;8.48;62.16;99628.68;4430828;80;21097;-89
2021/04/23 10:45:01;;;;;;;10.48;6.92;;;;;;;7.96;64.10;99628.63;4429837;80;21100;-88
2021/04/23 10:51:21;;;;;;;14.03;7.20;;;;;;;7.86;65.21;99616.25;4427609;80;21101;-88
2021/04/23 10:57:25;;;;;;;9.15;6.78;;;;;;;8.56;66.43;99614.91;4426191;80;21140;-88
2021/04/23 11:03:33;;;;;;;8.83;6.25;;;;;;;10.26;66.57;99607.95;4423172;80;21129;-89
2021/04/23 11:09:34;;;;;;;11.25;7.62;;;;;;;10.94;64.46;99598.59;4432523;80;21120;-89
2021/04/23 11:15:36;;;;;;;8.18;5.12;;;;;;;11.13;64.24;99606.19;4430084;80;21122;-87
2021/04/23 11:21:38;;;;;;;15.58;10.68;;;;;;;10.50;62.84;99626.05;4411982;79;21145;-87
2021/04/23 11:28:07;;;;;;;11.53;7.10;;;;;;;8.80;62.54;99606.61;4414024;80;21129;-88
2021/04/23 11:34:14;;;;;;;8.83;6.50;;;;;;;7.77;63.89;99635.22;4315614;80;21176;-87
2021/04/23 11:40:22;;;;;;;8.68;6.30;;;;;;;7.95;64.71;99619.65;4284812;83;21147;-88
2021/04/23 11:46:46;;;;;;;;;;;;;;;8.04;64.85;99630.45;4295077;83;21138;-88
2021/04/23 11:52:59;;;;;;;10.58;8.25;;;;;;;7.33;65.76;99629.30;4259722;83;20162;-88
2021/04/23 12:05:58;;;;;;;11.28;7.08;;;;;;;6.83;67.94;99640.38;4417247;80;21165;-89
2021/04/23 12:12:10;;;;;;;11.03;8.05;;;;;;;7.09;68.06;99643.66;4372022;79;93921;-88
2021/04/23 12:18:13;;;;;;;12.88;7.65;;;;;;;7.47;69.04;99640.67;4287863;82;21491;-89
2021/04/23 12:24:21;;;;;;;8.95;6.20;;;;;;;7.81;68.76;99651.91;4344741;82;21131;-88
2021/04/23 12:30:33;;;;;;;15.32;9.23;;;;;;;7.72;68.82;99670.91;4298851;82;21168;-87
2021/04/23 12:36:39;;;;;;;11.95;7.45;;;;;;;7.15;68.77;99672.26;4319338;82;21181;-87
2021/04/23 12:42:41;;;;;;;13.65;6.10;;;;;;;7.35;69.09;99647.44;4353155;82;21126;-88
2021/04/23 12:48:43;;;;;;;16.67;6.53;;;;;;;8.12;69.54;99632.81;4321474;82;21780;-88
2021/04/23 12:54:49;;;;;;;10.32;7.00;;;;;;;8.54;68.59;99639.02;4313538;82;21185;-87
2021/04/23 13:00:51;;;;;;;13.53;8.50;;;;;;;8.76;67.84;99623.47;4263599;83;21458;-87
2021/04/23 13:06:54;;;;;;;14.00;8.40;;;;;;;8.76;67.84;99623.47;4256515;82;21152;-87
2021/04/23 13:13:06;;;;;;;14.90;9.43;;;;;;;8.68;67.98;99616.78;4356838;79;21621;-88
2021/04/23 13:19:08;;;;;;;13.40;8.03;;;;;;;8.47;67.52;99608.78;4357407;81;21137;-87
2021/04/23 13:25:16;;;;;;;13.95;9.10;;;;;;;8.68;68.46;99603.14;4294122;81;21120;-88
2021/04/23 13:31:19;;;;;;;13.50;7.70;;;;;;;9.14;68.29;99588.24;4330733;82;21225;-89
2021/04/23 13:37:34;;;;;;;13.25;6.58;;;;;;;9.88;67.68;99585.17;4323680;82;21163;-90
2021/04/23 13:43:37;;;;;;;13.80;7.60;;;;;;;10.52;66.35;99591.69;4320680;82;21136;-88
2021/04/23 13:49:39;;;;;;;11.73;6.47;;;;;;;10.85;65.24;99593.33;4270598;82;21627;-88
2021/04/23 13:55:52;;;;;;;12.68;6.95;;;;;;;10.67;64.58;99594.14;4290544;82;21159;-88
2021/04/23 14:02:22;;;;;;;13.80;7.00;;;;;;;10.26;64.02;99611.25;4575768;76;22958;-87
2021/04/23 14:08:23;;;;;;;10.23;5.55;;;;;;;9.09;63.89;99617.73;4479432;79;21160;-88
2021/04/23 14:14:33;;;;;;;12.28;6.85;;;;;;;8.26;64.69;99622.37;4483638;79;21132;-88
2021/04/23 14:20:35;;;;;;;13.22;8.03;;;;;;;7.75;65.38;99617.84;4485298;79;21129;-88
2021/04/23 14:26:38;;;;;;;16.70;7.95;;;;;;;7.57;66.50;99608.33;4493432;79;21577;-88
2021/04/23 14:32:41;;;;;;;15.38;8.45;;;;;;;7.83;67.73;99599.78;4487766;79;21120;-88
2021/04/23 14:38:43;;;;;;;12.65;8.40;;;;;;;8.24;67.76;99606.94;4474556;79;21167;-87
2021/04/23 14:44:45;;;;;;;15.72;8.73;;;;;;;8.23;67.77;99603.97;4474547;79;21113;-87
2021/04/23 14:50:49;;;;;;;17.62;8.38;;;;;;;8.70;67.30;99589.38;4473927;79;21622;-88
2021/04/23 14:56:53;;;;;;;15.75;9.15;;;;;;;9.01;67.15;99588.65;4477412;79;21155;-87
2021/04/23 15:02:58;;;;;;;18.95;10.70;;;;;;;9.06;67.04;99593.30;4478499;79;21132;-86
2021/04/23 15:09:03;;;;;;;20.12;10.95;;;;;;;8.96;66.89;99603.91;4449677;79;21613;-87
2021/04/23 15:15:06;;;;;;;18.90;10.80;;;;;;;8.34;66.77;99614.63;4476481;79;21156;-87
2021/04/23 15:21:08;;;;;;;18.52;11.00;;;;;;;8.16;68.43;99601.02;4490939;79;21137;-88
2021/04/23 15:27:10;;;;;;;18.62;11.43;;;;;;;8.50;68.35;99589.02;4423910;79;21208;-89
2021/04/23 15:33:12;;;;;;;21.33;10.58;;;;;;;9.01;68.15;99576.36;4457940;78;21160;-88
2021/04/23 15:39:14;;;;;;;14.78;9.13;;;;;;;9.19;66.85;99579.77;4473183;80;21153;-88
2021/04/23 15:45:26;;;;;;;15.65;9.20;;;;;;;8.92;66.75;99583.36;4473146;79;21646;-88
2021/04/23 15:51:28;;;;;;;19.90;11.05;;;;;;;8.70;67.28;99586.66;4501040;78;21159;-87
2021/04/23 15:57:30;;;;;;;19.80;11.30;;;;;;;8.62;66.76;99593.05;4500708;78;21838;-89
2021/04/23 16:03:32;;;;;;;25.23;11.78;;;;;;;8.39;66.41;99593.38;4481670;78;21128;-87
2021/04/23 16:09:35;;;;;;;22.35;11.70;;;;;;;8.29;67.16;99591.67;4491447;78;21593;-88
2021/04/23 16:15:36;;;;;;;19.85;10.78;;;;;;;8.42;67.02;99589.14;4484697;78;21140;-88
2021/04/23 16:21:38;;;;;;;20.17;10.90;;;;;;;8.55;66.56;99587.38;4502712;78;21125;-86
2021/04/23 16:27:41;;;;;;;9.93;5.33;;;;;;;8.66;66.17;99587.11;4502175;78;21597;-87
2021/04/23 16:33:43;;;;;;;8.78;4.62;;;;;;;8.68;64.52;99597.12;4511354;78;21159;-87
2021/04/23 16:39:44;;;;;;;12.35;5.30;;;;;;;8.46;61.16;99606.40;4531867;78;21112;-89
2021/04/23 16:45:49;;;;;;;7.95;4.67;;;;;;;8.15;60.55;99611.12;4482385;79;21133;-88
2021/04/23 16:51:51;;;;;;;11.08;4.83;;;;;;;7.93;60.07;99609.67;4461101;79;21575;-88
2021/04/23 16:57:53;;;;;;;12.03;5.35;;;;;;;7.73;59.44;99613.89;4492627;78;21582;-87
2021/04/23 17:03:55;;;;;;;17.40;7.35;;;;;;;7.55;59.82;99621.48;4499772;79;21142;-88
2021/04/23 17:09:57;;;;;;;19.25;7.92;;;;;;;7.39;59.74;99632.81;4518867;79;21141;-89
2021/04/23 17:15:59;;;;;;;16.52;6.72;;;;;;;7.19;59.92;99639.69;4497969;79;21144;-87
2021/04/23 17:22:00;;;;;;;15.20;7.03;;;;;;;7.06;59.58;99653.05;4514956;79;21093;-87
2021/04/23 17:28:02;;;;;;;14.50;6.97;;;;;;;7.05;59.78;99654.16;4512187;79;21562;-86
2021/04/23 17:34:06;;;;;;;17.80;7.80;;;;;;;7.06;59.70;99665.30;4486179;79;21547;-87
2021/04/23 17:40:10;;;;;;;25.48;9.95;;;;;;;7.07;59.92;99669.61;4396110;81;21161;-87
2021/04/23 17:46:12;;;;;;;20.62;9.43;;;;;;;6.98;59.69;99679.23;4391076;81;21154;-87
2021/04/23 17:52:14;;;;;;;33.33;10.35;;;;;;;6.84;59.61;99701.05;4315132;82;21155;-88
2021/04/23 17:58:16;;;;;;;24.63;10.63;;;;;;;6.68;60.04;99709.58;4369090;81;21179;-87
2021/04/23 18:04:18;;;;;;;28.05;10.38;;;;;;;6.52;60.64;99711.28;4361561;81;21174;-87
2021/04/23 18:10:20;;;;;;;19.07;8.45;;;;;;;6.37;61.08;99715.41;4367799;81;21159;-87
2021/04/23 18:16:26;;;;;;;14.95;7.42;;;;;;;6.24;61.82;99717.23;4379587;81;21171;-88
2021/04/23 18:22:28;;;;;;;22.13;9.00;;;;;;;6.19;63.42;99733.73;4378260;81;21639;-87
2021/04/23 18:28:30;;;;;;;24.95;11.10;;;;;;;6.06;63.29;99732.03;4378658;81;21167;-87
2021/04/23 18:34:32;;;;;;;24.20;10.40;;;;;;;5.76;64.30;99743.95;4368002;81;21564;-86
2021/04/23 18:40:36;;;;;;;23.32;11.93;;;;;;;5.53;64.62;99752.09;4335199;81;21209;-88
2021/04/23 18:46:39;;;;;;;26.87;12.60;;;;;;;5.56;65.22;99752.80;4332945;81;21158;-87
2021/04/23 18:52:44;;;;;;;23.45;11.22;;;;;;;5.34;64.85;99750.29;4359280;81;21121;-86
2021/04/23 18:58:45;;;;;;;26.65;13.22;;;;;;;5.15;65.43;99753.12;4367660;81;21163;-87
2021/04/23 19:04:48;;;;;;;36.13;15.53;;;;;;;5.10;65.93;99756.00;4331279;81;21149;-87
2021/04/23 19:10:50;;;;;;;31.12;16.10;;;;;;;4.97;66.28;99753.69;4367696;81;21199;-87
2021/04/23 19:16:52;;;;;;;41.10;17.17;;;;;;;4.86;66.39;99765.97;4328886;81;21343;-87
2021/04/23 19:22:54;;;;;;;35.78;16.23;;;;;;;4.64;66.95;99767.47;4312131;82;21169;-86
2021/04/23 19:28:56;;;;;;;32.13;16.40;;;;;;;4.59;67.47;99775.20;4308977;82;21157;-86
2021/04/23 19:34:59;;;;;;;55.15;25.27;;;;;;;4.58;67.87;99784.45;4324879;82;21138;-86
2021/04/23 19:41:01;;;;;;;55.03;26.30;;;;;;;4.54;68.14;99781.34;4324377;82;21517;-88
2021/04/23 19:47:03;;;;;;;59.40;26.82;;;;;;;4.50;68.54;99774.94;4324661;82;21165;-86
2021/04/23 19:53:05;;;;;;;68.67;29.05;;;;;;;4.48;68.84;99775.25;4324090;82;21173;-87
2021/04/23 19:59:07;;;;;;;52.62;26.30;;;;;;;4.46;68.75;99783.47;4327679;82;21158;-87
2021/04/23 20:05:10;;;;;;;56.50;24.52;;;;;;;4.41;68.36;99798.52;4338198;82;21178;-87
2021/04/23 20:11:12;;;;;;;62.65;24.70;;;;;;;4.50;68.60;99798.80;4339674;82;21757;-86
2021/04/23 20:17:14;;;;;;;80.38;26.50;;;;;;;4.64;68.46;99793.23;4319941;82;21323;-86
2021/04/23 20:23:16;;;;;;;59.18;24.02;;;;;;;4.71;68.53;99793.57;4340312;82;21560;-86
2021/04/23 20:29:18;;;;;;;56.50;21.17;;;;;;;4.75;68.71;99796.69;4341061;82;21583;-87
2021/04/23 20:35:19;;;;;;;48.83;19.82;;;;;;;4.65;68.72;99792.91;4341804;82;21304;-86
2021/04/23 20:41:21;;;;;;;45.03;21.00;;;;;;;4.47;68.74;99783.70;4341221;82;21174;-86
2021/04/23 20:47:23;;;;;;;46.88;20.92;;;;;;;4.30;69.24;99793.95;4341351;82;21158;-87
2021/04/23 20:53:24;;;;;;;59.35;24.47;;;;;;;4.12;69.82;99787.44;4341494;82;21166;-86
2021/04/23 20:59:26;;;;;;;57.58;26.42;;;;;;;4.05;69.82;99788.44;4337793;82;21641;-86
2021/04/23 21:05:27;;;;;;;80.72;33.38;;;;;;;4.09;70.28;99798.88;4326312;82;21157;-86
2021/04/23 21:11:28;;;;;;;102.25;41.13;;;;;;;4.11;70.86;99792.05;4326152;82;21157;-86
2021/04/23 21:17:30;;;;;;;84.15;37.08;;;;;;;4.03;70.82;99800.12;4326153;82;21150;-87
2021/04/23 21:23:32;;;;;;;60.30;28.50;;;;;;;4.13;71.53;99808.80;4326009;82;21126;-87
2021/04/23 21:29:33;;;;;;;68.83;29.10;;;;;;;4.22;71.75;99809.63;4325455;82;21149;-88
2021/04/23 21:35:35;;;;;;;70.83;33.42;;;;;;;4.24;72.37;99804.70;4326382;82;21153;-86
2021/04/23 21:41:36;;;;;;;71.37;35.48;;;;;;;4.22;72.20;99801.50;4326266;82;21181;-85
2021/04/23 21:47:44;;;;;;;63.05;32.28;;;;;;;4.22;72.15;99792.02;4325405;82;21153;-87
2021/04/23 21:53:45;;;;;;;68.83;31.70;;;;;;;4.29;72.41;99784.78;4325319;82;21174;-86
2021/04/23 21:59:47;;;;;;;62.15;29.70;;;;;;;4.33;72.48;99782.48;4329711;81;21178;-87
2021/04/23 22:05:48;;;;;;;83.65;37.40;;;;;;;4.30;72.52;99777.70;4341310;82;21126;-87
2021/04/23 22:11:50;;;;;;;60.08;27.95;;;;;;;4.22;72.82;99768.17;4341297;82;21603;-86
2021/04/23 22:17:51;;;;;;;58.48;27.87;;;;;;;4.29;73.29;99775.30;4341119;82;21178;-87
2021/04/23 22:23:53;;;;;;;69.65;30.45;;;;;;;4.32;73.44;99776.80;4342424;82;21166;-86
2021/04/23 22:29:54;;;;;;;59.63;27.35;;;;;;;4.42;73.54;99790.08;4342284;82;21162;-87
2021/04/23 22:35:56;;;;;;;51.70;24.32;;;;;;;4.47;73.78;99787.77;4341879;82;21300;-86
2021/04/23 22:41:58;;;;;;;58.70;28.30;;;;;;;4.53;73.94;99791.38;4341573;82;21635;-86
2021/04/23 22:47:59;;;;;;;51.63;26.57;;;;;;;4.53;74.03;99779.72;4341879;82;21564;-87
2021/04/23 22:54:00;;;;;;;55.95;26.40;;;;;;;4.46;74.25;99776.70;4341289;82;21154;-86
2021/04/23 23:00:08;;;;;;;55.95;26.82;;;;;;;4.42;74.38;99773.00;4338294;82;21173;-88
2021/04/23 23:06:10;;;;;;;52.20;26.60;;;;;;;4.45;74.81;99760.98;4325851;82;21615;-86
2021/04/23 23:12:11;;;;;;;51.20;25.92;;;;;;;4.41;74.93;99762.73;4325931;82;21419;-86
2021/04/23 23:18:13;;;;;;;57.20;25.62;;;;;;;4.32;74.99;99759.76;4325953;82;21639;-87
2021/04/23 23:24:15;;;;;;;54.05;25.68;;;;;;;4.20;75.29;99752.22;4326182;82;21166;-86
2021/04/23 23:30:18;;;;;;;58.60;25.57;;;;;;;4.14;75.47;99756.20;4325706;82;21149;-86
2021/04/23 23:36:19;;;;;;;51.15;24.18;;;;;;;4.13;75.84;99753.25;4326402;82;21165;-86
2021/04/23 23:42:21;;;;;;;51.70;23.65;;;;;;;4.16;75.96;99745.05;4326178;82;21178;-86
2021/04/23 23:48:23;;;;;;;49.27;24.43;;;;;;;4.10;75.54;99748.44;4326063;82;21350;-86
2021/04/23 23:54:24;;;;;;;47.00;23.12;;;;;;;4.14;75.88;99752.68;4325052;81;21197;-86
